createdAt,value
2022-11-26T00:00:00.409Z,0.2
2022-11-26T00:05:00.405Z,0.5
2022-11-26T00:10:00.391Z,0.9
2022-11-26T00:15:00.527Z,0.2
2022-11-26T00:20:01.768Z,2.4
2022-11-26T00:25:00.837Z,3.5
2022-11-26T00:30:00.443Z,0.4
2022-11-26T00:35:00.952Z,1.4
2022-11-26T00:40:01.302Z,0.6
2022-11-26T00:45:00.463Z,0.3
2022-11-26T00:50:01.237Z,2.4
2022-11-26T00:55:00.268Z,2.7
2022-11-26T01:00:00.352Z,2.4
2022-11-26T01:05:00.378Z,3.4
2022-11-26T01:10:00.561Z,1.8
2022-11-26T01:15:00.288Z,2.2
2022-11-26T01:20:00.279Z,1.5
2022-11-26T01:25:00.324Z,1.8
2022-11-26T01:30:00.483Z,1.0
2022-11-26T01:35:00.429Z,1.7
2022-11-26T01:40:00.282Z,1.1
2022-11-26T01:45:00.279Z,2.9
2022-11-26T01:50:00.384Z,0.9
2022-11-26T01:55:00.603Z,0.6
2022-11-26T02:00:00.538Z,2.5
2022-11-26T02:05:00.603Z,2.2
2022-11-26T02:10:00.431Z,1.8
2022-11-26T02:15:00.426Z,2.9
2022-11-26T02:20:00.290Z,1.5
2022-11-26T02:25:00.255Z,3.2
2022-11-26T02:30:00.564Z,1.4
2022-11-26T02:35:00.270Z,1.9
2022-11-26T02:40:00.322Z,1.4
2022-11-26T02:45:00.271Z,3.4
2022-11-26T02:50:00.361Z,2.8
2022-11-26T02:55:00.269Z,0.4
2022-11-26T03:00:00.358Z,1.7
2022-11-26T03:05:00.391Z,1.7
2022-11-26T03:10:00.415Z,2.8
2022-11-26T03:15:00.551Z,2.4
2022-11-26T03:20:01.354Z,1.4
2022-11-26T03:25:00.254Z,4.0
2022-11-26T03:30:00.287Z,3.5
2022-11-26T03:35:00.355Z,3.6
2022-11-26T03:40:00.339Z,1.7
2022-11-26T03:45:00.407Z,2.4
2022-11-26T03:50:00.471Z,4.6
2022-11-26T03:55:00.273Z,2.4
2022-11-26T04:00:00.302Z,4.1
2022-11-26T04:05:00.263Z,4.7
2022-11-26T04:10:00.591Z,5.9
2022-11-26T04:15:00.294Z,7.5
2022-11-26T04:20:00.324Z,4.8
2022-11-26T04:25:00.266Z,4.3
2022-11-26T04:30:00.380Z,4.3
2022-11-26T04:35:00.645Z,3.4
2022-11-26T04:40:00.696Z,1.9
2022-11-26T04:45:00.435Z,3.6
2022-11-26T04:50:00.669Z,3.2
2022-11-26T04:55:00.255Z,5.8
2022-11-26T05:00:01.041Z,6.1
2022-11-26T05:05:00.373Z,9.8
2022-11-26T05:10:00.293Z,8.1
2022-11-26T05:15:00.373Z,3.7
2022-11-26T05:20:00.604Z,5.7
2022-11-26T05:25:00.254Z,4.6
2022-11-26T05:30:00.287Z,7.5
2022-11-26T05:35:01.130Z,6.3
2022-11-26T05:40:00.258Z,3.7
2022-11-26T05:45:00.867Z,5.8
2022-11-26T05:50:00.912Z,4.3
2022-11-26T05:55:00.436Z,3.8
2022-11-26T06:00:00.373Z,4.2
2022-11-26T06:05:00.557Z,7.8
2022-11-26T06:10:00.313Z,5.7
2022-11-26T06:15:00.818Z,7.9
2022-11-26T06:20:00.957Z,4.4
2022-11-26T06:25:00.315Z,4.9
2022-11-26T06:30:00.509Z,3.9
2022-11-26T06:35:00.433Z,2.2
2022-11-26T06:40:00.353Z,5.9
2022-11-26T06:45:00.594Z,4.6
2022-11-26T06:50:07.851Z,4.0
2022-11-26T06:55:00.245Z,4.9
2022-11-26T07:00:00.305Z,2.1
2022-11-26T07:05:00.296Z,5.0
2022-11-26T07:10:00.268Z,5.1
2022-11-26T07:15:00.352Z,1.9
2022-11-26T07:20:00.437Z,1.6
2022-11-26T07:25:00.266Z,2.4
2022-11-26T07:30:00.309Z,1.2
2022-11-26T07:35:00.234Z,2.4
2022-11-26T07:40:00.264Z,1.6
2022-11-26T07:45:00.827Z,2.3
2022-11-26T07:50:00.262Z,3.9
2022-11-26T07:55:00.255Z,4.5
2022-11-26T08:00:01.126Z,0.7
2022-11-26T08:05:00.301Z,2.8
2022-11-26T08:10:00.279Z,2.8
2022-11-26T08:15:00.267Z,2.6
2022-11-26T08:20:00.317Z,2.9
2022-11-26T08:25:00.287Z,5.0
2022-11-26T08:30:00.734Z,4.3
2022-11-26T08:35:00.377Z,5.4
2022-11-26T08:40:00.310Z,6.0
2022-11-26T08:45:00.280Z,2.3
2022-11-26T08:50:00.389Z,3.8
2022-11-26T08:55:00.338Z,2.7
2022-11-26T09:00:01.112Z,5.4
2022-11-26T09:05:00.506Z,5.0
2022-11-26T09:10:00.307Z,4.1
2022-11-26T09:15:00.532Z,6.1
2022-11-26T09:20:00.285Z,3.2
2022-11-26T09:25:00.310Z,3.2
2022-11-26T09:30:00.456Z,2.6
2022-11-26T09:35:00.696Z,3.3
2022-11-26T09:40:00.380Z,5.3
2022-11-26T09:45:00.313Z,3.1
2022-11-26T09:50:00.498Z,4.7
2022-11-26T09:55:00.741Z,4.0
2022-11-26T10:00:01.528Z,5.9
2022-11-26T10:05:00.379Z,6.6
2022-11-26T10:10:00.332Z,8.4
2022-11-26T10:15:00.305Z,4.0
2022-11-26T10:20:00.261Z,2.7
2022-11-26T10:25:00.276Z,2.3
2022-11-26T10:30:00.332Z,2.4
2022-11-26T10:35:00.452Z,3.9
2022-11-26T10:40:07.308Z,3.4
2022-11-26T10:45:00.312Z,4.4
2022-11-26T10:50:00.299Z,4.3
2022-11-26T10:55:00.734Z,0.9
2022-11-26T11:00:00.451Z,1.6
2022-11-26T11:05:00.386Z,0.6
2022-11-26T11:10:00.442Z,2.6
2022-11-26T11:15:00.428Z,1.8
2022-11-26T11:20:00.547Z,1.7
2022-11-26T11:25:00.451Z,2.6
2022-11-26T11:30:00.375Z,3.8
2022-11-26T11:35:00.863Z,2.6
2022-11-26T11:40:00.551Z,0.4
2022-11-26T11:45:00.335Z,4.4
2022-11-26T11:50:00.272Z,3.0
2022-11-26T11:55:00.337Z,2.6
2022-11-26T12:00:00.271Z,2.4
2022-11-26T12:05:00.920Z,2.5
2022-11-26T12:15:00.608Z,5.2
2022-11-26T12:20:00.329Z,7.3
2022-11-26T12:25:00.290Z,5.1
2022-11-26T12:30:00.332Z,10.3
2022-11-26T12:35:00.274Z,7.5
2022-11-26T12:40:00.320Z,8.5
2022-11-26T12:45:00.379Z,5.2
2022-11-26T12:50:00.323Z,8.9
2022-11-26T12:55:00.339Z,5.7
2022-11-26T13:00:00.348Z,7.4
2022-11-26T13:05:00.282Z,4.7
2022-11-26T13:10:00.382Z,4.7
2022-11-26T13:15:00.341Z,1.0
2022-11-26T13:20:00.334Z,1.4
2022-11-26T13:25:00.314Z,2.3
2022-11-26T13:30:00.353Z,2.8
2022-11-26T13:35:00.375Z,1.9
2022-11-26T13:40:00.322Z,0.1
2022-11-26T13:45:00.288Z,0.6
2022-11-26T13:50:00.329Z,1.4
2022-11-26T13:55:00.281Z,2.5
2022-11-26T14:00:00.368Z,1.0
2022-11-26T14:05:00.288Z,1.3
2022-11-26T14:10:00.365Z,1.1
2022-11-26T14:15:00.338Z,3.1
2022-11-26T14:20:00.360Z,0.8
2022-11-26T14:25:00.302Z,1.7
2022-11-26T14:30:00.385Z,1.1
2022-11-26T14:35:00.301Z,0.9
2022-11-26T14:40:00.339Z,2.1
2022-11-26T14:45:00.283Z,0.3
2022-11-26T14:50:00.334Z,0.1
2022-11-26T14:55:00.766Z,0.9
2022-11-26T15:00:00.354Z,0.8
2022-11-26T15:05:00.261Z,2.1
2022-11-26T15:10:00.353Z,3.9
2022-11-26T15:15:00.304Z,3.4
2022-11-26T15:20:00.403Z,2.1
2022-11-26T15:25:00.328Z,3.0
2022-11-26T15:30:00.328Z,2.6
2022-11-26T15:35:00.301Z,0.6
2022-11-26T15:40:00.328Z,0.2
2022-11-26T15:45:00.325Z,0.3
2022-11-26T15:50:00.346Z,0.9
2022-11-26T15:55:12.750Z,0.0
2022-11-26T16:00:00.334Z,0.5
2022-11-26T16:05:00.292Z,0.4
2022-11-26T16:10:00.326Z,0.9
2022-11-26T16:15:00.476Z,0.0
2022-11-26T16:20:00.327Z,0.0
2022-11-26T16:25:00.275Z,0.0
2022-11-26T16:30:00.387Z,0.3
2022-11-26T16:35:30.130Z,1.4
2022-11-26T16:40:00.313Z,0.9
2022-11-26T16:45:04.555Z,0.4
2022-11-26T16:50:00.338Z,2.4
2022-11-26T16:55:00.312Z,1.4
2022-11-26T17:00:00.343Z,3.7
2022-11-26T17:05:00.266Z,2.4
2022-11-26T17:10:00.330Z,1.0
2022-11-26T17:15:00.525Z,0.5
2022-11-26T17:20:00.563Z,0.4
2022-11-26T17:25:00.296Z,0.4
2022-11-26T17:30:00.365Z,1.5
2022-11-26T17:35:00.328Z,0.1
2022-11-26T17:40:00.356Z,0.6
2022-11-26T17:45:00.298Z,0.0
2022-11-26T17:50:00.809Z,0.1
2022-11-26T17:55:00.298Z,0.0
2022-11-26T18:00:00.421Z,0.5
2022-11-26T18:05:00.296Z,0.1
2022-11-26T18:10:00.316Z,1.0
2022-11-26T18:15:00.279Z,0.7
2022-11-26T18:20:01.076Z,0.4
2022-11-26T18:25:00.280Z,1.1
2022-11-26T18:30:00.796Z,0.0
2022-11-26T18:35:00.282Z,1.0
2022-11-26T18:40:00.345Z,0.7
2022-11-26T18:45:00.294Z,0.2
2022-11-26T18:50:00.638Z,1.2
2022-11-26T18:55:00.470Z,0.3
2022-11-26T19:00:00.303Z,0.5
2022-11-26T19:05:00.278Z,0.1
2022-11-26T19:10:00.509Z,0.4
2022-11-26T19:15:00.402Z,0.1
2022-11-26T19:20:00.421Z,0.5
2022-11-26T19:25:00.255Z,0.1
2022-11-26T19:30:00.323Z,0.6
2022-11-26T19:35:06.298Z,0.0
2022-11-26T19:40:00.347Z,0.4
2022-11-26T19:45:00.751Z,1.0
2022-11-26T19:50:00.282Z,0.7
2022-11-26T19:55:00.257Z,1.5
2022-11-26T20:00:00.327Z,0.4
2022-11-26T20:05:00.331Z,1.5
2022-11-26T20:10:00.355Z,1.7
2022-11-26T20:15:00.278Z,1.7
2022-11-26T20:20:00.520Z,0.2
2022-11-26T20:25:00.264Z,1.8
2022-11-26T20:30:01.345Z,0.2
2022-11-26T20:35:00.412Z,0.2
2022-11-26T20:40:00.378Z,0.3
2022-11-26T20:45:00.300Z,0.1
2022-11-26T20:50:00.392Z,0.5
2022-11-26T20:55:00.401Z,0.2
2022-11-26T21:00:00.794Z,0.1
2022-11-26T21:05:00.335Z,0.5
2022-11-26T21:10:00.348Z,0.0
2022-11-26T21:15:00.294Z,0.0
2022-11-26T21:20:00.561Z,0.4
2022-11-26T21:25:00.230Z,0.0
2022-11-26T21:30:00.336Z,0.1
2022-11-26T21:35:00.505Z,0.2
2022-11-26T21:40:00.391Z,0.4
2022-11-26T21:45:00.408Z,0.3
2022-11-26T21:50:00.394Z,0.2
2022-11-26T21:55:04.103Z,0.2
2022-11-26T22:00:00.392Z,0.6
2022-11-26T22:05:00.585Z,0.3
2022-11-26T22:10:00.933Z,0.1
2022-11-26T22:15:00.403Z,0.3
2022-11-26T22:20:00.323Z,0.4
2022-11-26T22:25:00.284Z,0.1
2022-11-26T22:30:00.352Z,0.1
2022-11-26T22:35:00.245Z,0.0
2022-11-26T22:40:00.870Z,0.1
2022-11-26T22:45:00.266Z,1.0
2022-11-26T22:50:00.284Z,0.3
2022-11-26T22:55:00.256Z,1.2
2022-11-26T23:00:01.199Z,0.2
2022-11-26T23:05:00.285Z,0.3
2022-11-26T23:10:00.290Z,0.1
2022-11-26T23:15:00.289Z,0.0
2022-11-26T23:20:00.273Z,0.3
2022-11-26T23:25:00.288Z,0.0
2022-11-26T23:30:00.476Z,0.0
2022-11-26T23:35:00.249Z,0.2
2022-11-26T23:40:00.371Z,0.0
2022-11-26T23:45:00.240Z,0.0
2022-11-26T23:50:01.376Z,0.0
2022-11-26T23:55:00.282Z,0.0
